FTTY

Faya Largeau Airport

Chad
METAR FTTY 171500Z 04008KT CAVOK 31/M00 Q1012
Observed Flight Rules
Dec-17 @ 15:00 UTC (12 hours ago) Visual Flight Rules
Wind Visibility Clouds
40° at 8 knots 10,000+ meters
  • Clear skies
Temperatures Readings
Current 31°C / 88°F
Dewpoint 0°C / 32°F
Humidity 13%
Altimeter 29.88" Hg
Pressure 1012 hPa
Elevation 234
METAR FTTY 171500Z 04008KT CAVOK 31/M00 Q1012
Observed Flight Rules
Dec-17 @ 15:00 UTC
(12 hours ago)
VFR
Wind Visibility
40° at 8 knots 10,000+ meters
Clouds
  • Clear skies
Temperature Dewpoint
31°C / 88°F 0°C / 32°F
Humidity Altimeter Pressure
13% 29.88" Hg 1012 hPa